createdAt,value
2022-08-05T00:04:58.052Z,12.00
2022-08-05T00:10:00.781Z,9.60
2022-08-05T00:15:56.309Z,10.00
2022-08-05T00:20:29.124Z,11.00
2022-08-05T00:25:41.599Z,9.00
2022-08-05T00:30:52.043Z,10.40
2022-08-05T00:36:15.935Z,8.20
2022-08-05T00:41:29.607Z,9.60
2022-08-05T00:47:02.080Z,10.40
2022-08-05T00:52:07.271Z,10.20
2022-08-05T00:57:10.116Z,11.00
2022-08-05T01:02:14.206Z,11.00
2022-08-05T01:07:19.404Z,9.60
2022-08-05T01:12:24.261Z,10.80
2022-08-05T01:17:43.888Z,9.80
2022-08-05T01:23:14.298Z,10.00
2022-08-05T01:28:26.583Z,11.00
2022-08-05T01:33:36.749Z,10.60
2022-08-05T01:38:41.938Z,10.60
2022-08-05T01:43:49.381Z,10.20
2022-08-05T01:48:55.603Z,11.00
2022-08-05T01:54:02.150Z,10.40
2022-08-05T01:59:10.806Z,9.80
2022-08-05T02:04:17.615Z,10.00
2022-08-05T02:09:20.963Z,10.40
2022-08-05T02:14:32.093Z,9.60
2022-08-05T02:19:46.996Z,9.40
2022-08-05T02:24:54.109Z,10.80
2022-08-05T02:30:00.779Z,9.60
2022-08-05T02:35:14.081Z,11.20
2022-08-05T02:40:18.199Z,11.60
2022-08-05T02:45:24.362Z,11.00
2022-08-05T02:50:29.677Z,9.20
2022-08-05T02:55:52.002Z,12.60
2022-08-05T03:01:02.220Z,10.40
2022-08-05T03:06:55.283Z,10.80
2022-08-05T03:11:55.599Z,10.00
2022-08-05T03:16:53.503Z,10.00
2022-08-05T03:21:56.322Z,11.00
2022-08-05T03:27:01.748Z,10.40
2022-08-05T03:32:07.632Z,11.20
2022-08-05T03:37:11.758Z,11.00
2022-08-05T03:42:17.041Z,11.00
2022-08-05T03:47:21.393Z,11.00
2022-08-05T03:52:39.072Z,12.00
2022-08-05T03:57:54.425Z,10.40
2022-08-05T04:03:02.788Z,10.80
2022-08-05T04:08:14.774Z,10.20
2022-08-05T04:13:49.798Z,9.60
2022-08-05T04:18:57.745Z,9.40
2022-08-05T04:24:05.028Z,10.20
2022-08-05T04:29:09.513Z,10.80
2022-08-05T04:34:31.434Z,8.60
2022-08-05T04:39:36.151Z,10.00
2022-08-05T04:44:39.092Z,9.40
2022-08-05T04:50:02.721Z,9.00
2022-08-05T04:55:14.482Z,10.80
2022-08-05T05:00:18.612Z,10.20
2022-08-05T05:05:29.383Z,10.80
2022-08-05T05:10:34.539Z,9.20
2022-08-05T05:15:56.594Z,8.60
2022-08-05T05:21:01.623Z,9.25
2022-08-05T05:26:04.438Z,8.60
2022-08-05T05:31:08.863Z,8.00
2022-08-05T05:36:13.169Z,8.00
2022-08-05T05:41:17.565Z,7.25
2022-08-05T05:46:21.816Z,7.75
2022-08-05T05:51:27.869Z,6.00
2022-08-05T05:56:34.706Z,7.00
2022-08-05T06:01:40.226Z,6.75
2022-08-05T06:06:47.556Z,7.25
2022-08-05T06:12:02.117Z,7.00
2022-08-05T06:17:22.129Z,5.50
2022-08-05T06:22:30.236Z,6.50
2022-08-05T06:28:12.584Z,6.00
2022-08-05T06:32:59.765Z,5.00
2022-08-05T06:38:11.237Z,6.00
2022-08-05T06:43:58.933Z,7.00
2022-08-05T06:48:54.619Z,5.75
2022-08-05T06:54:03.838Z,6.50
2022-08-05T06:59:08.430Z,5.50
2022-08-05T07:04:14.037Z,6.00
2022-08-05T07:09:18.371Z,6.25
2022-08-05T07:14:40.404Z,7.75
2022-08-05T07:25:22.718Z,6.50
2022-08-05T07:30:32.077Z,7.00
2022-08-05T07:36:03.388Z,6.25
2022-08-05T07:41:04.548Z,6.75
2022-08-05T07:46:25.080Z,7.00
2022-08-05T07:51:37.564Z,7.60
2022-08-05T07:57:02.320Z,7.75
2022-08-05T08:02:15.830Z,7.00
2022-08-05T08:07:22.764Z,7.00
2022-08-05T08:12:39.365Z,7.00
2022-08-05T08:17:52.714Z,7.00
2022-08-05T08:22:57.407Z,6.75
2022-08-05T08:28:01.588Z,5.25
2022-08-05T08:33:08.986Z,5.75
2022-08-05T08:38:16.867Z,7.75
2022-08-05T08:45:16.345Z,5.00
2022-08-05T08:50:05.720Z,5.50
2022-08-05T08:54:29.645Z,7.00
2022-08-05T08:59:34.345Z,7.00
2022-08-05T09:04:58.202Z,7.00
2022-08-05T09:10:01.441Z,6.00
2022-08-05T09:15:07.507Z,6.00
2022-08-05T09:20:12.743Z,7.25
2022-08-05T09:25:59.862Z,6.00
2022-08-05T09:31:22.732Z,6.20
2022-08-05T09:36:54.821Z,6.00
2022-08-05T09:42:01.137Z,5.75
2022-08-05T09:47:15.764Z,6.00
2022-08-05T09:52:21.898Z,6.00
2022-08-05T09:57:39.408Z,6.60
2022-08-05T10:02:46.091Z,6.50
2022-08-05T10:08:35.172Z,6.80
2022-08-05T10:13:31.532Z,6.20
2022-08-05T10:18:35.992Z,6.20
2022-08-05T10:23:59.297Z,6.00
2022-08-05T10:29:02.754Z,5.25
2022-08-05T10:34:08.326Z,4.50
2022-08-05T10:39:25.199Z,5.00
2022-08-05T10:44:39.989Z,5.00
2022-08-05T10:50:35.365Z,5.25
2022-08-05T10:55:30.527Z,5.00
2022-08-05T11:00:47.542Z,3.50
2022-08-05T11:06:14.674Z,4.25
2022-08-05T11:11:52.684Z,4.75
2022-08-05T11:18:00.151Z,5.50
2022-08-05T11:23:01.991Z,5.75
2022-08-05T11:28:43.145Z,5.00
2022-08-05T11:33:55.007Z,5.00
2022-08-05T11:38:59.714Z,4.00
2022-08-05T11:44:08.375Z,5.75
2022-08-05T11:49:14.567Z,4.00
2022-08-05T11:54:33.457Z,4.50
2022-08-05T11:59:41.237Z,5.00
2022-08-05T12:04:53.501Z,4.00
2022-08-05T12:10:09.594Z,2.75
2022-08-05T12:15:20.676Z,4.75
2022-08-05T12:20:41.378Z,5.00
2022-08-05T12:25:53.450Z,4.50
2022-08-05T12:30:57.700Z,4.25
2022-08-05T12:36:08.122Z,3.50
2022-08-05T12:41:14.255Z,4.00
2022-08-05T12:46:29.575Z,3.50
2022-08-05T12:52:13.049Z,3.75
2022-08-05T12:56:59.075Z,3.00
2022-08-05T13:02:07.422Z,4.00
2022-08-05T13:07:16.028Z,4.00
2022-08-05T13:12:23.349Z,3.50
2022-08-05T13:17:41.397Z,3.00
2022-08-05T13:22:51.583Z,3.25
2022-08-05T13:27:57.365Z,3.25
2022-08-05T13:33:01.089Z,3.00
2022-08-05T13:38:04.953Z,3.25
2022-08-05T13:43:12.275Z,2.75
2022-08-05T13:48:58.613Z,3.00
2022-08-05T13:53:47.904Z,3.75
2022-08-05T13:58:53.409Z,3.00
2022-08-05T14:04:10.647Z,3.00
2022-08-05T14:09:13.421Z,3.25
2022-08-05T14:14:23.318Z,2.25
2022-08-05T14:19:28.881Z,3.25
2022-08-05T14:24:31.663Z,3.00
2022-08-05T14:29:36.650Z,3.00
2022-08-05T14:34:39.432Z,2.75
2022-08-05T14:39:50.191Z,3.00
2022-08-05T14:45:01.285Z,3.75
2022-08-05T14:50:17.147Z,3.00
2022-08-05T14:55:21.649Z,3.00
2022-08-05T15:00:29.421Z,2.75
2022-08-05T15:06:07.910Z,3.25
2022-08-05T15:10:55.455Z,2.25
2022-08-05T15:15:59.887Z,2.25
2022-08-05T15:21:07.658Z,3.00
2022-08-05T15:26:10.688Z,2.50
2022-08-05T15:31:15.159Z,1.50
2022-08-05T15:36:24.568Z,2.50
2022-08-05T15:41:57.231Z,3.00
2022-08-05T15:46:52.991Z,2.00
2022-08-05T15:52:10.343Z,2.00
2022-08-05T15:57:21.782Z,3.00
2022-08-05T16:02:27.717Z,2.25
2022-08-05T16:07:32.111Z,2.50
2022-08-05T16:12:35.082Z,2.25
2022-08-05T16:17:39.204Z,2.25
2022-08-05T16:22:41.934Z,2.75
2022-08-05T16:27:47.082Z,3.50
2022-08-05T16:33:04.801Z,4.00
2022-08-05T16:38:18.679Z,2.00
2022-08-05T16:43:31.322Z,2.25
2022-08-05T16:48:35.982Z,2.50
2022-08-05T16:54:04.334Z,3.00
2022-08-05T16:59:08.287Z,3.00
2022-08-05T17:04:12.730Z,2.00
2022-08-05T17:09:17.940Z,3.00
2022-08-05T17:14:22.529Z,2.40
2022-08-05T17:19:38.935Z,2.25
2022-08-05T17:24:46.391Z,2.25
2022-08-05T17:30:02.545Z,3.00
2022-08-05T17:35:08.174Z,3.25
2022-08-05T17:40:17.926Z,3.00
2022-08-05T17:45:22.411Z,2.25
2022-08-05T17:50:30.330Z,2.50
2022-08-05T17:55:39.588Z,3.25
2022-08-05T18:00:47.781Z,1.50
2022-08-05T18:05:55.320Z,2.00
2022-08-05T18:11:04.795Z,3.00
2022-08-05T18:16:09.572Z,2.25
2022-08-05T18:21:21.090Z,2.75
2022-08-05T18:26:27.831Z,2.25
2022-08-05T18:31:35.436Z,2.00
2022-08-05T18:36:41.368Z,2.00
2022-08-05T18:41:59.497Z,3.00
2022-08-05T18:47:05.045Z,2.25
2022-08-05T18:52:33.037Z,3.00
2022-08-05T18:57:52.473Z,2.25
2022-08-05T19:02:56.493Z,2.00
2022-08-05T19:08:02.736Z,2.00
2022-08-05T19:13:05.774Z,2.00
2022-08-05T19:18:13.526Z,1.00
2022-08-05T19:24:06.757Z,1.75
2022-08-05T19:28:47.860Z,1.00
2022-08-05T19:33:56.474Z,1.00
2022-08-05T19:39:01.954Z,1.25
2022-08-05T19:44:13.651Z,4.50
2022-08-05T19:49:17.804Z,2.00
2022-08-05T19:54:31.295Z,1.25
2022-08-05T19:59:56.073Z,1.25
2022-08-05T20:04:58.359Z,4.00
2022-08-05T20:10:04.862Z,1.75
2022-08-05T20:15:15.835Z,1.75
2022-08-05T20:20:38.978Z,1.50
2022-08-05T20:25:43.119Z,1.00
2022-08-05T20:30:45.832Z,1.00
2022-08-05T20:35:50.703Z,3.00
2022-08-05T20:40:55.453Z,1.25
2022-08-05T20:46:00.338Z,2.00
2022-08-05T20:51:08.078Z,2.00
2022-08-05T20:56:12.524Z,2.00
2022-08-05T21:01:15.285Z,2.00
2022-08-05T21:06:28.591Z,1.00
2022-08-05T21:12:07.479Z,1.00
2022-08-05T21:16:56.955Z,1.25
2022-08-05T21:21:59.719Z,1.00
2022-08-05T21:27:04.217Z,2.50
2022-08-05T21:32:09.846Z,2.00
2022-08-05T21:37:19.952Z,3.00
2022-08-05T21:42:41.195Z,2.00
2022-08-05T21:47:57.111Z,2.50
2022-08-05T21:53:04.599Z,2.00
2022-08-05T21:58:12.707Z,2.00
2022-08-05T22:03:15.495Z,2.00
2022-08-05T22:08:24.091Z,2.00
2022-08-05T22:14:05.679Z,3.00
2022-08-05T22:18:58.742Z,2.25
2022-08-05T22:24:40.910Z,2.75
2022-08-05T22:29:43.680Z,2.00
2022-08-05T22:34:48.650Z,1.00
2022-08-05T22:39:51.523Z,3.00
2022-08-05T22:44:59.541Z,2.00
2022-08-05T22:50:19.732Z,3.25
2022-08-05T22:55:26.107Z,2.00
2022-08-05T23:00:30.342Z,3.00
2022-08-05T23:05:36.167Z,2.00
2022-08-05T23:10:39.305Z,2.25
2022-08-05T23:15:43.505Z,2.00
2022-08-05T23:20:53.108Z,2.00
2022-08-05T23:25:56.687Z,3.00
2022-08-05T23:31:14.818Z,3.00
2022-08-05T23:36:18.800Z,2.00
2022-08-05T23:41:21.996Z,3.00
2022-08-05T23:46:28.130Z,4.00
2022-08-05T23:51:52.391Z,3.50
2022-08-05T23:57:03.226Z,2.75
